Time;durP1;ratioP1;P1;durP2;ratioP2;P2;SDS_P1;SDS_P2;PMS_P1;PMS_P2;Temp;Humidity;BMP_temperature;BMP_pressure;BME280_temperature;BME280_humidity;BME280_pressure;Samples;Min_cycle;Max_cycle;Signal;HPM_P1;HPM_P2
2022/11/04 00:00:48;;;;;;;;;;;;;;;21.40;56.63;99685.16;7253575;19;154551;-58
2022/11/04 00:03:16;;;;;;;;;;;;;;;21.41;57.07;99698.06;7255717;19;153386;-58
2022/11/04 00:05:43;;;;;;;;;;;;;;;21.42;57.19;99701.69;7256314;19;154888;-58
2022/11/04 00:13:22;;;;;;;;;;;;;;;21.41;57.50;99712.09;7265115;19;154029;-58
2022/11/04 00:18:26;;;;;;;;;;;;;;;21.37;57.38;99725.19;7255388;19;153900;-58
2022/11/04 00:28:46;;;;;;;;;;;;;;;21.36;57.91;99725.53;7253646;19;152392;-58
2022/11/04 00:33:51;;;;;;;;;;;;;;;21.33;58.17;99735.50;7253152;19;154353;-58
2022/11/04 00:36:19;;;;;;;;;;;;;;;21.34;57.93;99747.56;7254206;19;154022;-59
2022/11/04 00:38:46;;;;;;;;;;;;;;;21.31;58.02;99743.44;7256183;19;152279;-58
2022/11/04 00:43:50;;;;;;;;;;;;;;;21.28;58.46;99749.75;7263118;19;153811;-58
2022/11/04 00:46:17;;;;;;;;;;;;;;;21.27;58.50;99742.47;7254723;19;154936;-58
2022/11/04 00:48:44;;;;;;;;;;;;;;;21.24;58.21;99738.38;7254831;19;153332;-58
2022/11/04 00:51:11;;;;;;;;;;;;;;;21.24;58.29;99752.41;7256728;19;154033;-58
2022/11/04 00:53:39;;;;;;;;;;;;;;;21.24;58.28;99754.41;7255073;19;153178;-58
2022/11/04 00:56:06;;;;;;;;;;;;;;;21.24;58.14;99762.84;7255570;19;153228;-58
2022/11/04 00:58:33;;;;;;;;;;;;;;;21.22;58.35;99760.34;7253425;19;152895;-58
2022/11/04 01:01:00;;;;;;;;;;;;;;;21.22;58.67;99763.16;7248822;19;155361;-58
2022/11/04 01:03:27;;;;;;;;;;;;;;;21.23;58.59;99767.63;7255459;19;153028;-58
2022/11/04 01:05:56;;;;;;;;;;;;;;;21.23;58.23;99776.06;7261917;19;154176;-58
2022/11/04 01:08:23;;;;;;;;;;;;;;;21.24;58.49;99776.88;7263608;19;154379;-58
2022/11/04 01:10:50;;;;;;;;;;;;;;;21.22;58.33;99770.75;7283533;19;152665;-58
2022/11/04 01:13:17;;;;;;;;;;;;;;;21.22;58.12;99779.19;7266003;19;153485;-58
2022/11/04 01:15:44;;;;;;;;;;;;;;;21.22;58.28;99787.63;7255936;19;153298;-58
2022/11/04 01:18:11;;;;;;;;;;;;;;;21.22;58.33;99790.44;7257355;19;153528;-58
2022/11/04 01:20:38;;;;;;;;;;;;;;;21.21;58.05;99786.00;7253562;19;153808;-58
2022/11/04 01:23:05;;;;;;;;;;;;;;;21.18;58.58;99795.09;7256128;19;154167;-58
2022/11/04 01:25:32;;;;;;;;;;;;;;;21.18;58.18;99800.72;7254840;19;152985;-58
2022/11/04 01:27:59;;;;;;;;;;;;;;;21.16;58.56;99801.06;7260550;19;153839;-58
2022/11/04 01:30:26;;;;;;;;;;;;;;;21.15;58.17;99801.41;7254120;19;152791;-59
2022/11/04 01:32:53;;;;;;;;;;;;;;;21.15;58.16;99805.03;7255783;19;153700;-58
2022/11/04 01:35:19;;;;;;;;;;;;;;;21.14;58.43;99802.56;7255617;19;154109;-58
2022/11/04 01:37:46;;;;;;;;;;;;;;;21.12;58.31;99807.69;7255297;19;154412;-58
2022/11/04 01:40:13;;;;;;;;;;;;;;;21.11;58.32;99818.09;7251284;19;152932;-57
2022/11/04 01:42:40;;;;;;;;;;;;;;;21.08;58.23;99824.34;7253923;19;153362;-58
2022/11/04 01:45:13;;;;;;;;;;;;;;;21.07;58.25;99819.94;7251856;19;154612;-58
2022/11/04 01:47:43;;;;;;;;;;;;;;;21.06;58.08;99831.50;7259848;19;154260;-58
2022/11/04 01:50:14;;;;;;;;;;;;;;;21.06;58.14;99834.31;7253520;19;153339;-58
2022/11/04 01:52:51;;;;;;;;;;;;;;;21.04;58.21;99839.41;7251995;19;153127;-58
2022/11/04 01:55:20;;;;;;;;;;;;;;;21.02;58.14;99834.16;7253461;19;152723;-58
2022/11/04 01:57:49;;;;;;;;;;;;;;;21.01;58.37;99846.56;7250474;19;152703;-58
2022/11/04 02:00:16;;;;;;;;;;;;;;;20.99;58.19;99854.47;7248617;19;154035;-58
2022/11/04 02:02:49;;;;;;;;;;;;;;;20.98;58.30;99852.03;7251349;19;153876;-58
2022/11/04 02:05:17;;;;;;;;;;;;;;;20.96;58.66;99857.16;7252751;19;154392;-58
2022/11/04 02:07:48;;;;;;;;;;;;;;;20.94;58.64;99865.09;7251923;19;154632;-58
2022/11/04 02:10:15;;;;;;;;;;;;;;;20.92;58.85;99867.41;7261223;19;152643;-58
2022/11/04 02:15:22;;;;;;;;;;;;;;;20.89;59.50;99870.91;7253539;19;154451;-57
2022/11/04 02:17:57;;;;;;;;;;;;;;;20.87;59.53;99874.03;7265925;19;153389;-57
2022/11/04 02:20:24;;;;;;;;;;;;;;;20.88;59.38;99883.28;7264525;19;154142;-57
2022/11/04 02:23:00;;;;;;;;;;;;;;;20.86;59.51;99890.06;7269309;19;153175;-60
2022/11/04 02:25:30;;;;;;;;;;;;;;;20.84;59.45;99897.19;7268470;19;154679;-58
2022/11/04 02:28:17;;;;;;;;;;;;;;;20.82;59.92;99899.47;7267347;19;155560;-57
2022/11/04 02:30:51;;;;;;;;;;;;;;;20.81;59.85;99900.63;7267043;19;153723;-58
2022/11/04 02:33:21;;;;;;;;;;;;;;;20.80;59.74;99908.22;7273361;19;154050;-58
2022/11/04 02:35:48;;;;;;;;;;;;;;;20.77;59.95;99916.50;7268399;19;153029;-58
2022/11/04 02:38:16;;;;;;;;;;;;;;;20.77;59.75;99922.13;7267852;19;154098;-58
2022/11/04 02:40:52;;;;;;;;;;;;;;;20.77;59.94;99922.13;7265921;19;153653;-58
2022/11/04 02:43:19;;;;;;;;;;;;;;;20.74;59.84;99928.41;7264248;19;154843;-58
2022/11/04 02:45:48;;;;;;;;;;;;;;;20.72;59.76;99934.34;7264134;19;152836;-58
2022/11/04 02:48:15;;;;;;;;;;;;;;;20.72;59.85;99939.16;7264360;19;155446;-58
2022/11/04 02:50:43;;;;;;;;;;;;;;;20.70;60.02;99944.28;7266970;19;152741;-58
2022/11/04 02:53:19;;;;;;;;;;;;;;;20.67;60.03;99954.19;7268969;19;154268;-58
2022/11/04 02:55:48;;;;;;;;;;;;;;;20.67;60.10;99971.03;7274079;19;155186;-58
2022/11/04 02:58:18;;;;;;;;;;;;;;;20.66;59.74;99971.38;7263050;19;153626;-58
2022/11/04 03:00:46;;;;;;;;;;;;;;;20.65;60.32;99989.38;7263950;19;154034;-58
2022/11/04 03:03:16;;;;;;;;;;;;;;;20.63;59.75;99984.06;7267106;19;154180;-58
2022/11/04 03:05:46;;;;;;;;;;;;;;;20.60;59.85;99993.16;7265505;19;152002;-58
2022/11/04 03:08:19;;;;;;;;;;;;;;;20.59;60.09;99994.31;7263613;19;153414;-58
2022/11/04 03:10:50;;;;;;;;;;;;;;;20.59;60.10;99999.09;7267126;19;153476;-58
2022/11/04 03:13:24;;;;;;;;;;;;;;;20.57;60.11;99998.63;7261050;19;153272;-58
2022/11/04 03:15:58;;;;;;;;;;;;;;;20.53;60.14;100004.09;7261363;19;154400;-58
2022/11/04 03:18:35;;;;;;;;;;;;;;;20.52;60.13;100008.03;7266198;19;153616;-58
2022/11/04 03:21:08;;;;;;;;;;;;;;;20.52;59.84;100008.03;7257995;19;153409;-58
2022/11/04 03:23:35;;;;;;;;;;;;;;;20.51;59.97;100017.59;7262369;19;153104;-58
2022/11/04 03:26:12;;;;;;;;;;;;;;;20.49;60.11;100019.91;7261311;19;154612;-57
2022/11/04 03:28:45;;;;;;;;;;;;;;;20.49;60.16;100021.91;7250831;19;154744;-57
2022/11/04 03:31:18;;;;;;;;;;;;;;;20.47;60.05;100027.03;7254072;19;152936;-58
2022/11/04 03:33:47;;;;;;;;;;;;;;;20.46;60.14;100026.19;7253301;19;152728;-58
2022/11/04 03:36:14;;;;;;;;;;;;;;;20.46;60.37;100031.81;7256823;19;153730;-57
2022/11/04 03:38:41;;;;;;;;;;;;;;;20.44;60.19;100025.72;7258638;19;152444;-58
2022/11/04 03:41:13;;;;;;;;;;;;;;;20.42;60.26;100028.84;7264749;19;152904;-58
2022/11/04 03:43:40;;;;;;;;;;;;;;;20.41;60.18;100035.59;7256877;19;153889;-57
2022/11/04 03:46:08;;;;;;;;;;;;;;;20.39;60.66;100025.88;7262386;19;153123;-58
2022/11/04 03:48:35;;;;;;;;;;;;;;;20.39;60.53;100025.88;7260917;19;154894;-58
2022/11/04 03:51:02;;;;;;;;;;;;;;;20.39;60.21;100034.28;7261787;19;154258;-58
2022/11/04 03:53:29;;;;;;;;;;;;;;;20.38;60.47;100043.84;7259927;19;153660;-58
2022/11/04 03:56:07;;;;;;;;;;;;;;;20.37;60.42;100048.63;7257262;19;155834;-58
2022/11/04 03:58:43;;;;;;;;;;;;;;;20.36;60.33;100043.34;7255044;19;152523;-58
2022/11/04 04:01:13;;;;;;;;;;;;;;;20.35;60.15;100048.13;7262771;19;155107;-58
2022/11/04 04:03:52;;;;;;;;;;;;;;;20.33;60.47;100047.66;7259534;19;152887;-58
2022/11/04 04:06:23;;;;;;;;;;;;;;;20.32;60.26;100062.00;7258091;19;154616;-58
2022/11/04 04:08:53;;;;;;;;;;;;;;;20.31;60.58;100058.34;7255021;19;154572;-57
2022/11/04 04:11:31;;;;;;;;;;;;;;;20.30;60.25;100065.16;7257300;19;153107;-57
2022/11/04 04:14:07;;;;;;;;;;;;;;;20.30;60.18;100072.75;7257168;19;154115;-58
2022/11/04 04:16:34;;;;;;;;;;;;;;;20.29;60.17;100082.25;7256748;19;155668;-57
2022/11/04 04:19:04;;;;;;;;;;;;;;;20.27;60.58;100084.56;7257251;19;152895;-58
2022/11/04 04:21:34;;;;;;;;;;;;;;;20.26;60.31;100088.53;7254064;19;153296;-58
2022/11/04 04:29:17;;;;;;;;;;;;;;;20.23;60.38;100104.03;7254433;19;153872;-58
2022/11/04 04:31:49;;;;;;;;;;;;;;;20.21;60.44;100105.53;7257782;19;152884;-58
2022/11/04 04:34:18;;;;;;;;;;;;;;;20.19;60.64;100105.00;7253279;19;154440;-58
2022/11/04 04:36:52;;;;;;;;;;;;;;;20.19;60.58;100117.06;7252885;19;153663;-57
2022/11/04 04:47:18;;;;;;;;;;;;;;;20.14;60.47;100141.63;7265861;19;153470;-57
2022/11/04 04:49:49;;;;;;;;;;;;;;;20.10;60.34;100149.88;7251984;19;153827;-57
2022/11/04 04:52:17;;;;;;;;;;;;;;;20.10;60.43;100169.50;7256355;19;153553;-57
2022/11/04 04:54:44;;;;;;;;;;;;;;;20.08;60.62;100166.16;7256334;19;153419;-57
2022/11/04 04:57:10;;;;;;;;;;;;;;;20.08;60.09;100160.56;7253769;19;154076;-57
2022/11/04 04:59:37;;;;;;;;;;;;;;;20.07;60.33;100175.75;7255417;19;153920;-57
2022/11/04 05:02:04;;;;;;;;;;;;;;;20.06;60.16;100188.13;7253149;19;153427;-57
2022/11/04 05:04:31;;;;;;;;;;;;;;;20.06;60.07;100199.34;7255416;19;154111;-58
2022/11/04 05:06:58;;;;;;;;;;;;;;;20.05;60.31;100194.88;7254396;19;153397;-57
2022/11/04 05:09:25;;;;;;;;;;;;;;;20.04;60.20;100210.03;7262931;19;152649;-58
2022/11/04 05:11:52;;;;;;;;;;;;;;;20.03;60.42;100216.81;7255268;19;153958;-58
2022/11/04 05:14:19;;;;;;;;;;;;;;;20.01;60.27;100221.91;7255782;19;154064;-58
2022/11/04 05:16:46;;;;;;;;;;;;;;;20.01;60.54;100223.88;7255152;19;154505;-58
2022/11/04 05:19:13;;;;;;;;;;;;;;;19.98;60.61;100234.63;7255219;19;153690;-58
2022/11/04 05:21:40;;;;;;;;;;;;;;;19.97;60.44;100243.34;7254266;19;154189;-58
2022/11/04 05:24:07;;;;;;;;;;;;;;;19.94;60.75;100252.41;7255522;19;154551;-58
2022/11/04 05:26:33;;;;;;;;;;;;;;;19.97;60.34;100261.00;7254527;19;153268;-57
2022/11/04 05:29:00;;;;;;;;;;;;;;;19.93;61.06;100259.97;7254404;19;153375;-57
2022/11/04 05:31:29;;;;;;;;;;;;;;;19.94;60.56;100258.00;7262577;19;154193;-57
2022/11/04 05:33:57;;;;;;;;;;;;;;;19.92;60.56;100272.34;7255569;19;153798;-58
2022/11/04 05:36:24;;;;;;;;;;;;;;;19.92;60.42;100269.53;7251970;19;154069;-57
2022/11/04 05:38:54;;;;;;;;;;;;;;;19.91;60.53;100275.44;7256548;19;154853;-57
2022/11/04 05:41:28;;;;;;;;;;;;;;;19.89;60.91;100283.38;7251861;19;153581;-57
2022/11/04 05:43:56;;;;;;;;;;;;;;;19.89;60.91;100306.63;7253560;19;154597;-57
2022/11/04 05:46:23;;;;;;;;;;;;;;;19.87;60.81;100299.66;7252788;19;153173;-57
2022/11/04 05:48:51;;;;;;;;;;;;;;;19.85;60.77;100314.00;7254560;19;153962;-57
2022/11/04 05:51:19;;;;;;;;;;;;;;;19.86;60.47;100320.44;7248823;19;152920;-57
2022/11/04 05:53:46;;;;;;;;;;;;;;;19.83;60.95;100326.69;7262820;19;153058;-57
2022/11/04 05:56:13;;;;;;;;;;;;;;;19.82;61.07;100331.47;7252305;19;154988;-57
2022/11/04 05:58:40;;;;;;;;;;;;;;;19.81;61.01;100341.00;7252344;19;153161;-57
2022/11/04 06:01:11;;;;;;;;;;;;;;;19.81;60.85;100343.00;7253601;19;153944;-57
2022/11/04 06:03:38;;;;;;;;;;;;;;;19.80;60.93;100349.75;7254451;19;153739;-57
2022/11/04 06:06:05;;;;;;;;;;;;;;;19.79;61.01;100360.16;7253325;19;154299;-58
2022/11/04 06:08:32;;;;;;;;;;;;;;;19.78;60.72;100364.09;7251965;19;152626;-59
2022/11/04 06:10:59;;;;;;;;;;;;;;;19.77;60.71;100370.00;7252918;19;153955;-58
2022/11/04 06:13:26;;;;;;;;;;;;;;;19.74;60.69;100377.09;7259248;19;153341;-58
2022/11/04 06:15:53;;;;;;;;;;;;;;;19.74;60.69;100373.44;7252352;19;155623;-59
2022/11/04 06:18:20;;;;;;;;;;;;;;;19.71;60.66;100380.53;7255900;19;154255;-59
2022/11/04 06:20:47;;;;;;;;;;;;;;;19.74;61.04;100387.47;7254211;19;153365;-58
2022/11/04 06:23:13;;;;;;;;;;;;;;;19.72;61.00;100386.94;7247972;19;153789;-59
2022/11/04 06:25:40;;;;;;;;;;;;;;;19.70;61.04;100398.47;7254216;19;151785;-58
2022/11/04 06:28:10;;;;;;;;;;;;;;;19.70;60.80;100414.47;7251547;19;154855;-58
2022/11/04 06:30:37;;;;;;;;;;;;;;;19.69;61.02;100418.41;7251089;19;152979;-58
2022/11/04 06:33:04;;;;;;;;;;;;;;;19.67;60.87;100429.13;7252060;19;154400;-58
2022/11/04 06:35:31;;;;;;;;;;;;;;;19.66;61.00;100439.50;7261218;19;153845;-58
2022/11/04 06:37:58;;;;;;;;;;;;;;;19.62;60.99;100438.47;7254086;19;152520;-58
2022/11/04 06:40:25;;;;;;;;;;;;;;;19.61;60.68;100445.22;7253752;19;154191;-60
2022/11/04 06:42:52;;;;;;;;;;;;;;;19.62;60.56;100458.09;7247432;19;154532;-60
2022/11/04 06:45:19;;;;;;;;;;;;;;;19.61;60.50;100464.00;7254059;19;153663;-60
2022/11/04 06:47:46;;;;;;;;;;;;;;;19.59;60.56;100472.72;7254312;19;153965;-60
2022/11/04 06:50:13;;;;;;;;;;;;;;;19.58;60.43;100473.06;7250407;19;154170;-60
2022/11/04 06:52:40;;;;;;;;;;;;;;;19.57;60.43;100483.44;7255290;19;153948;-60
2022/11/04 06:55:08;;;;;;;;;;;;;;;19.57;60.74;100486.22;7250943;19;153937;-58
2022/11/04 06:57:35;;;;;;;;;;;;;;;19.57;60.23;100496.59;7258767;19;155912;-58
2022/11/04 07:00:02;;;;;;;;;;;;;;;19.58;60.59;100501.06;7250990;19;154137;-59
2022/11/04 07:02:29;;;;;;;;;;;;;;;19.59;60.20;100506.34;7253175;19;152771;-58
2022/11/04 07:04:56;;;;;;;;;;;;;;;19.64;61.13;100508.22;7258685;19;152578;-58
2022/11/04 07:07:43;;;;;;;;;;;;;;;19.70;61.41;100521.81;7257716;19;153474;-58
2022/11/04 07:10:10;;;;;;;;;;;;;;;19.75;61.43;100530.13;7255742;19;154125;-58
2022/11/04 07:12:37;;;;;;;;;;;;;;;19.78;61.74;100548.25;7257135;19;154413;-57
2022/11/04 07:15:04;;;;;;;;;;;;;;;19.79;61.64;100559.19;7256530;19;153862;-57
2022/11/04 07:17:32;;;;;;;;;;;;;;;19.84;61.58;100563.84;7257021;19;153046;-57
2022/11/04 07:19:59;;;;;;;;;;;;;;;19.89;61.82;100570.19;7268216;19;153321;-57
2022/11/04 07:22:26;;;;;;;;;;;;;;;19.94;61.74;100586.06;7258760;19;154646;-57
2022/11/04 07:24:53;;;;;;;;;;;;;;;19.97;61.15;100586.25;7256774;19;153303;-57
2022/11/04 07:27:20;;;;;;;;;;;;;;;20.01;61.00;100597.66;7257955;19;154376;-58
2022/11/04 07:29:46;;;;;;;;;;;;;;;20.06;61.22;100602.34;7255577;19;153401;-58
2022/11/04 07:32:13;;;;;;;;;;;;;;;20.13;60.78;100605.53;7256807;19;154373;-57
2022/11/04 07:34:40;;;;;;;;;;;;;;;20.16;60.25;100611.38;7223093;19;155149;-57
2022/11/04 07:37:07;;;;;;;;;;;;;;;20.19;59.84;100621.13;7251563;19;153273;-57
2022/11/04 07:39:34;;;;;;;;;;;;;;;20.19;58.82;100619.16;7255079;19;153809;-57
2022/11/04 07:42:01;;;;;;;;;;;;;;;20.23;59.14;100634.19;7262258;19;153233;-57
2022/11/04 07:44:28;;;;;;;;;;;;;;;20.26;58.61;100644.78;7256874;19;154771;-57
2022/11/04 07:46:55;;;;;;;;;;;;;;;20.31;58.60;100650.31;7257761;19;153277;-57
2022/11/04 07:49:22;;;;;;;;;;;;;;;20.35;58.41;100658.97;7256698;19;154250;-57
2022/11/04 07:51:49;;;;;;;;;;;;;;;20.39;57.81;100658.03;7256743;19;154073;-58
2022/11/04 07:54:16;;;;;;;;;;;;;;;20.42;57.51;100653.75;7258217;19;153454;-57
2022/11/04 07:56:43;;;;;;;;;;;;;;;20.46;57.83;100671.59;7255414;19;154027;-58
2022/11/04 07:59:10;;;;;;;;;;;;;;;20.50;57.68;100671.81;7251054;19;153702;-58
2022/11/04 08:01:37;;;;;;;;;;;;;;;20.52;57.39;100681.59;7254747;19;154693;-57
2022/11/04 08:04:04;;;;;;;;;;;;;;;20.54;57.51;100690.50;7262277;19;154151;-58
2022/11/04 08:06:30;;;;;;;;;;;;;;;20.57;57.03;100697.47;7250092;19;153944;-58
2022/11/04 08:09:08;;;;;;;;;;;;;;;20.60;56.71;100708.06;7256574;19;153400;-57
2022/11/04 08:11:35;;;;;;;;;;;;;;;20.65;56.51;100710.78;7251154;19;154603;-57
2022/11/04 08:14:03;;;;;;;;;;;;;;;20.67;56.49;100712.09;7253149;19;154127;-58
2022/11/04 08:16:29;;;;;;;;;;;;;;;20.71;56.38;100712.31;7256310;19;153406;-58
2022/11/04 08:19:01;;;;;;;;;;;;;;;20.71;56.29;100718.78;7251754;19;157799;-58
2022/11/04 08:21:29;;;;;;;;;;;;;;;20.75;55.81;100728.22;7258253;19;153652;-58
2022/11/04 08:23:55;;;;;;;;;;;;;;;20.77;56.08;100731.53;7261096;19;156644;-58
2022/11/04 08:26:23;;;;;;;;;;;;;;;20.80;55.78;100727.28;7255660;19;155474;-57
2022/11/04 08:28:50;;;;;;;;;;;;;;;20.80;54.91;100738.50;7253038;19;154307;-57
2022/11/04 08:31:17;;;;;;;;;;;;;;;20.66;51.28;100738.53;7259311;19;153297;-58
2022/11/04 08:33:44;;;;;;;;;;;;;;;20.72;53.16;100742.03;7258009;19;153433;-58
2022/11/04 08:36:15;;;;;;;;;;;;;;;20.72;52.35;100751.28;7260491;19;153722;-57
2022/11/04 08:38:42;;;;;;;;;;;;;;;20.74;52.50;100749.00;7255048;19;153784;-57
2022/11/04 08:41:09;;;;;;;;;;;;;;;20.75;52.77;100767.53;7257308;19;153637;-57
2022/11/04 08:43:36;;;;;;;;;;;;;;;20.77;53.02;100770.00;7249920;19;154411;-57
2022/11/04 08:46:04;;;;;;;;;;;;;;;20.76;52.52;100771.97;7263600;19;154021;-57
2022/11/04 08:48:31;;;;;;;;;;;;;;;20.77;52.89;100778.44;7254303;19;154181;-57
2022/11/04 08:50:58;;;;;;;;;;;;;;;20.76;52.47;100771.97;7260478;19;152932;-57
2022/11/04 08:53:24;;;;;;;;;;;;;;;20.77;52.49;100781.22;7257978;19;152826;-57
2022/11/04 08:55:51;;;;;;;;;;;;;;;20.77;52.92;100787.69;7256117;19;153783;-57
2022/11/04 08:58:18;;;;;;;;;;;;;;;20.78;52.41;100799.75;7257604;19;154283;-57
2022/11/04 09:00:45;;;;;;;;;;;;;;;20.77;52.68;100801.72;7257590;19;155306;-57
2022/11/04 09:03:12;;;;;;;;;;;;;;;20.78;52.60;100811.81;7258176;19;155073;-57
2022/11/04 09:05:47;;;;;;;;;;;;;;;20.79;52.18;100821.91;7258543;19;152290;-57
2022/11/04 09:08:15;;;;;;;;;;;;;;;20.78;52.06;100817.44;7265548;19;153468;-57
2022/11/04 09:10:43;;;;;;;;;;;;;;;20.79;52.53;100827.53;7258993;19;153898;-57
2022/11/04 09:13:11;;;;;;;;;;;;;;;20.79;52.19;100830.34;7254890;19;153037;-57
2022/11/04 09:15:38;;;;;;;;;;;;;;;20.80;52.48;100829.16;7257300;19;153888;-57
2022/11/04 09:18:05;;;;;;;;;;;;;;;20.83;52.77;100830.53;7258575;19;153925;-57
2022/11/04 09:20:32;;;;;;;;;;;;;;;20.84;52.62;100824.63;7259884;19;153524;-57
2022/11/04 09:22:59;;;;;;;;;;;;;;;20.86;52.81;100822.31;7257246;19;153094;-57
2022/11/04 09:25:25;;;;;;;;;;;;;;;20.89;52.67;100823.69;7257789;19;153188;-57
2022/11/04 09:27:56;;;;;;;;;;;;;;;20.91;52.77;100831.75;7254563;19;153691;-58
2022/11/04 09:30:22;;;;;;;;;;;;;;;20.94;53.13;100831.16;7260249;19;155051;-57
2022/11/04 09:32:49;;;;;;;;;;;;;;;20.96;52.76;100840.91;7256352;19;152288;-57
2022/11/04 09:35:18;;;;;;;;;;;;;;;20.97;52.95;100853.81;7253089;19;156443;-57
2022/11/04 09:37:50;;;;;;;;;;;;;;;20.99;52.93;100854.31;7256318;19;153858;-57
2022/11/04 09:40:19;;;;;;;;;;;;;;;21.02;52.91;100861.31;7254086;19;152478;-58
2022/11/04 09:42:45;;;;;;;;;;;;;;;21.05;52.92;100855.06;7252732;19;154973;-57
2022/11/04 09:45:17;;;;;;;;;;;;;;;21.07;52.65;100856.41;7255209;19;153749;-58
2022/11/04 09:47:56;;;;;;;;;;;;;;;21.08;52.80;100869.28;7255399;19;154186;-58
2022/11/04 09:50:24;;;;;;;;;;;;;;;21.11;52.72;100859.44;7254101;19;153936;-57
2022/11/04 09:52:56;;;;;;;;;;;;;;;21.13;52.47;100865.56;7260450;19;153916;-57
2022/11/04 09:55:38;;;;;;;;;;;;;;;21.14;51.95;100864.44;7254891;19;155480;-57
2022/11/04 09:58:07;;;;;;;;;;;;;;;21.15;52.56;100863.31;7251698;19;153216;-57
2022/11/04 10:00:36;;;;;;;;;;;;;;;21.16;52.42;100868.63;7253368;19;154268;-57
2022/11/04 10:03:22;;;;;;;;;;;;;;;21.17;52.50;100861.81;7247670;19;153587;-57
2022/11/04 10:05:56;;;;;;;;;;;;;;;21.18;52.05;100862.66;7223352;19;154951;-57
2022/11/04 10:08:38;;;;;;;;;;;;;;;21.17;51.39;100875.03;7249304;19;153051;-57
2022/11/04 10:11:25;;;;;;;;;;;;;;;21.16;51.54;100874.22;7254060;19;155811;-57
2022/11/04 10:13:52;;;;;;;;;;;;;;;21.17;51.59;100884.31;7259457;19;153806;-57
2022/11/04 10:16:21;;;;;;;;;;;;;;;21.17;51.81;100884.31;7255708;19;154553;-57
2022/11/04 10:19:08;;;;;;;;;;;;;;;21.16;51.55;100882.66;7255842;19;152369;-57
2022/11/04 10:21:53;;;;;;;;;;;;;;;21.18;51.72;100902.84;7254682;19;153741;-57
2022/11/04 10:24:30;;;;;;;;;;;;;;;21.18;51.25;100902.00;7253176;19;153713;-57
2022/11/04 10:27:02;;;;;;;;;;;;;;;21.18;50.89;100904.81;7256344;19;153801;-57
2022/11/04 10:29:39;;;;;;;;;;;;;;;21.18;51.53;100916.03;7253779;19;153608;-57
2022/11/04 10:32:19;;;;;;;;;;;;;;;21.18;51.04;100918.84;7253096;19;153191;-57
2022/11/04 10:34:52;;;;;;;;;;;;;;;21.18;51.36;100924.47;7254822;19;153468;-57
2022/11/04 10:37:19;;;;;;;;;;;;;;;21.19;51.27;100926.16;7263250;19;154025;-57
2022/11/04 10:39:46;;;;;;;;;;;;;;;21.19;51.29;100937.38;7260018;19;153626;-57
2022/11/04 10:42:15;;;;;;;;;;;;;;;21.18;51.31;100941.34;7258252;19;152375;-57
2022/11/04 10:44:42;;;;;;;;;;;;;;;21.19;51.29;100937.38;7254902;19;155083;-57
2022/11/04 10:47:09;;;;;;;;;;;;;;;21.21;51.17;100944.34;7261227;19;153662;-57
2022/11/04 10:49:54;;;;;;;;;;;;;;;21.20;51.14;100956.75;7256638;19;155064;-57
2022/11/04 10:52:41;;;;;;;;;;;;;;;21.22;51.26;100964.84;7234226;19;155498;-57
2022/11/04 10:55:17;;;;;;;;;;;;;;;21.20;50.76;100953.94;7256955;19;153946;-57
2022/11/04 11:25:49;;;;;;;;;;;;;;;21.15;50.71;100982.13;7242292;19;153836;-57
2022/11/04 11:28:25;;;;;;;;;;;;;;;21.16;50.38;100988.59;7262212;19;152786;-57
2022/11/04 11:31:00;;;;;;;;;;;;;;;21.16;50.86;100989.44;7255171;19;153226;-57
2022/11/04 11:33:30;;;;;;;;;;;;;;;21.16;50.76;100988.59;7259989;19;152733;-57
2022/11/04 11:36:11;;;;;;;;;;;;;;;21.17;50.77;100990.25;7256984;19;154300;-57
2022/11/04 11:38:51;;;;;;;;;;;;;;;21.18;50.85;100997.53;7259215;19;153910;-57
2022/11/04 11:41:22;;;;;;;;;;;;;;;21.18;51.01;100994.72;7257692;19;152642;-57
2022/11/04 11:43:52;;;;;;;;;;;;;;;21.19;51.23;100999.19;7255234;19;153407;-58
2022/11/04 11:46:22;;;;;;;;;;;;;;;21.20;51.11;100995.25;7254678;19;154129;-57
2022/11/04 11:48:51;;;;;;;;;;;;;;;21.24;51.08;101011.19;7257481;19;154056;-57
2022/11/04 11:51:23;;;;;;;;;;;;;;;21.27;51.49;101009.72;7263626;19;154311;-57
2022/11/04 11:54:01;;;;;;;;;;;;;;;21.29;51.30;101015.88;7257245;19;155571;-57
2022/11/04 11:56:34;;;;;;;;;;;;;;;21.31;50.98;101016.38;7257824;19;154194;-57
2022/11/04 11:59:21;;;;;;;;;;;;;;;21.34;51.00;101027.00;7252314;19;155741;-57
2022/11/04 12:02:11;;;;;;;;;;;;;;;21.36;51.02;101033.13;7257852;19;153504;-57
2022/11/04 12:04:40;;;;;;;;;;;;;;;21.38;50.84;101028.03;7254641;19;153867;-57
2022/11/04 12:07:30;;;;;;;;;;;;;;;21.40;49.60;101025.75;7256356;19;153148;-57
2022/11/04 12:10:27;;;;;;;;;;;;;;;21.37;47.96;101022.72;7256964;19;152364;-57
2022/11/04 12:13:19;;;;;;;;;;;;;;;21.34;47.53;101015.75;7259917;19;154922;-57
2022/11/04 12:16:04;;;;;;;;;;;;;;;21.32;46.85;101009.59;7266499;19;155164;-57
2022/11/04 12:18:41;;;;;;;;;;;;;;;21.27;45.90;101007.72;7259952;19;153039;-57
2022/11/04 12:21:20;;;;;;;;;;;;;;;21.25;45.09;101009.22;7257275;19;154145;-57
2022/11/04 12:23:58;;;;;;;;;;;;;;;21.23;45.11;101017.09;7258002;19;154009;-57
2022/11/04 12:26:25;;;;;;;;;;;;;;;21.17;43.92;101001.47;7256292;19;153411;-57
2022/11/04 12:29:03;;;;;;;;;;;;;;;21.15;44.83;101010.25;7255004;19;153681;-57
2022/11/04 12:31:40;;;;;;;;;;;;;;;21.16;45.23;101013.88;7254596;19;153745;-57
2022/11/04 12:34:17;;;;;;;;;;;;;;;21.16;45.15;101011.91;7256364;19;154504;-57
2022/11/04 12:36:54;;;;;;;;;;;;;;;21.15;45.39;101015.84;7231151;19;154942;-56
2022/11/04 12:39:22;;;;;;;;;;;;;;;21.16;45.86;101008.25;7252792;19;153289;-56
2022/11/04 12:41:59;;;;;;;;;;;;;;;21.16;46.07;101025.13;7254993;19;153495;-56
2022/11/04 12:44:52;;;;;;;;;;;;;;;21.16;45.97;101025.13;7251139;19;153112;-57
2022/11/04 12:47:21;;;;;;;;;;;;;;;21.14;46.01;101027.41;7253298;19;153573;-57
2022/11/04 12:50:04;;;;;;;;;;;;;;;21.15;46.55;101031.88;7251024;19;154414;-57
2022/11/04 12:52:31;;;;;;;;;;;;;;;21.15;46.36;101038.34;7252909;19;153351;-56
2022/11/04 12:55:08;;;;;;;;;;;;;;;21.17;46.46;101046.44;7256337;19;154200;-56
2022/11/04 12:57:43;;;;;;;;;;;;;;;21.17;46.55;101049.25;7253801;19;154437;-57
2022/11/04 13:00:13;;;;;;;;;;;;;;;21.19;47.20;101049.78;7260527;19;153078;-56
2022/11/04 13:02:49;;;;;;;;;;;;;;;21.18;47.31;101048.94;7255665;19;154447;-56
2022/11/04 13:05:27;;;;;;;;;;;;;;;21.21;47.53;101058.75;7255656;19;153391;-57
2022/11/04 13:08:02;;;;;;;;;;;;;;;21.20;47.67;101074.78;7253999;19;155254;-56
2022/11/04 13:10:39;;;;;;;;;;;;;;;21.19;48.02;101067.47;7252610;19;154320;-56
2022/11/04 13:13:08;;;;;;;;;;;;;;;21.20;48.19;101074.78;7253223;19;154052;-56
2022/11/04 13:15:42;;;;;;;;;;;;;;;21.20;48.05;101065.50;7252384;19;152556;-55
2022/11/04 13:18:14;;;;;;;;;;;;;;;21.19;48.19;101064.66;7254711;19;154316;-56
2022/11/04 13:20:47;;;;;;;;;;;;;;;21.21;47.96;101078.41;7256454;19;152852;-56
2022/11/04 13:23:17;;;;;;;;;;;;;;;21.21;48.11;101078.41;7263443;19;154206;-56
2022/11/04 13:25:46;;;;;;;;;;;;;;;21.21;48.31;101082.03;7252643;19;152839;-56
2022/11/04 13:28:18;;;;;;;;;;;;;;;21.24;48.42;101078.63;7252391;19;154497;-60
2022/11/04 13:30:59;;;;;;;;;;;;;;;21.25;48.43;101087.91;7251727;19;154098;-56
2022/11/04 13:33:27;;;;;;;;;;;;;;;21.26;48.13;101090.38;7256210;19;153481;-56
2022/11/04 13:35:57;;;;;;;;;;;;;;;21.28;48.28;101082.47;7258641;19;153747;-56
2022/11/04 13:38:30;;;;;;;;;;;;;;;21.31;48.66;101086.63;7255676;19;153642;-56
2022/11/04 13:41:06;;;;;;;;;;;;;;;21.34;48.69;101090.81;7256777;19;151760;-56
2022/11/04 13:43:40;;;;;;;;;;;;;;;21.36;48.73;101097.78;7257518;19;154430;-56
2022/11/04 13:46:07;;;;;;;;;;;;;;;21.37;49.13;101091.03;7260046;19;154496;-56
2022/11/04 13:48:37;;;;;;;;;;;;;;;21.59;49.05;101082.69;7255451;19;154039;-56